Finedon, United Kingdom
Current Conditions -  °F | °C
As of 2:20 PM on Sunday 21 Dec 2014 (Local Time) from EGTC Reporting Station
Broken Clouds Broken Clouds  
Wind Chill: 41°   Ceiling: 1000
Heat Index: 48°   Visibility: 6mi
Dew Point: 46°   Wind: 23mph
Humidity: 93%   Direction: 240°WSW
Pressure: 30.18"   Gusts: NA
Location:  52.34°N, 0.65°W
Report Text: EGTC 211420Z 24020KT 9999 BKN010 09/08 Q1022
Loading
Personal Weather Stations






























Interactive Weather Map New forecast layout! Learn more

10-Day Weather Forecast

Advertisements
Track Severe Weather on mobile